Aérodrome :
LOGIN :

S'inscrire | Disclaimer

   EN    FR    IT 

 










Légende :    VFR   VFR Marginal   IFR   IFR Intensif   IFR Très Intensif
Visi : 
Plafond : 
>= 8 km
>= 3000ft
5 à 8 km
1000 à 3000 ft
1500m à 5 km
500 à 1000 ft
800 à 1500m
200 à 500 ft
< 800m
< 200 ft
Symboles :   Orages  Brouillard  Fortes neiges  Fortes précipitations  Vent > 20 kt
SIGMETs :   Divers  Orages  Givrage  Turbulence  Onde Orograph.  Cendres Volcan.






- Altitude de l'aérodrome : 405 ft
- Code IATA : SUJ


LRSM - Satu Mare

DERNIER METAR :
  • 240530Z 19006KT 9999 -RA SCT015 OVC030 10/09 Q1002

METARs EXPIRÉS :
  • 240500Z 17005KT 9999 FEW026 FEW033CB OVC041 10/08 Q1002
  • 240430Z 18004KT 9999 -SHRA FEW023 FEW033CB OVC041 10/08 Q1002
  • 240400Z VRB02KT 9999 -RA BKN026 OVC042 10/08 Q1002
  • 240330Z AUTO 00000KT 9999 -DZ BKN028/// OVC065/// 09/08 Q1002
  • 240300Z AUTO 00000KT 9999 FEW028/// SCT032/// OVC065/// 09/08 Q1002 REDZ
  • 240230Z AUTO 09003KT 9999 -DZ SCT032/// BKN060/// OVC090/// 10/08 Q1003
  • 240200Z AUTO 08004KT 9999 -DZ FEW038/// SCT043/// OVC085/// 09/08 Q1003
  • 240130Z AUTO 08006KT 9999 -DZ BKN044/// OVC050/// 09/08 Q1003
  • 240100Z AUTO 06005KT 9999 -RA OVC050/// 10/08 Q1003

TAF TAF LRSM
Valide du 24 à 03h jusqu'au 24 à 12h UTC


240200Z 2403/2412 VRB04KT 9999 BKN045
PROB40
TEMPO 2403/2408 5000 -RA BKN015 BKN045
BECMG 2406/2408 23012KT



MET'MAP, la Météo Aéronautique d'un coup d'oeil ! - Copyright ORBIFLY Décembre 2007 - Disclaimer

ORBIFLY MET'MAP TEAM :

Programmation & Développement : Alexandra Zaïnal
Sur une idée originale de : Baudouin d'Aumeries
Soutien technique & logistique : Manuel Goepfert
Assistance : Marc-Olivier Méhu




SOURCES & CREDITS :

   NOAA